Time;durP1;ratioP1;P1;durP2;ratioP2;P2;SDS_P1;SDS_P2;PMS_P1;PMS_P2;Temp;Humidity;BMP_temperature;BMP_pressure;BME280_temperature;BME280_humidity;BME280_pressure;Samples;Min_cycle;Max_cycle;Signal;HPM_P1;HPM_P2
2023/12/13 00:00:55;;;;;;;109.67;62.00;;;;;;;5.94;71.95;94417.91;4177049;28;20554;-68
2023/12/13 00:02:58;;;;;;;120.55;68.40;;;;;;;6.01;72.08;94419.00;4178333;28;20081;-68
2023/12/13 00:05:00;;;;;;;107.22;59.70;;;;;;;6.10;71.97;94409.56;4176806;28;20060;-67
2023/12/13 00:07:02;;;;;;;97.70;55.92;;;;;;;6.27;71.58;94406.25;4172188;28;20553;-69
2023/12/13 00:09:04;;;;;;;84.53;52.50;;;;;;;6.43;71.00;94400.47;4171006;28;20045;-69
2023/12/13 00:11:06;;;;;;;82.15;49.90;;;;;;;6.53;70.22;94403.84;4171470;28;20132;-69
2023/12/13 00:13:08;;;;;;;83.18;50.60;;;;;;;6.60;69.84;94409.31;4175770;28;20049;-67
2023/12/13 00:15:11;;;;;;;80.07;50.65;;;;;;;6.66;69.92;94402.72;4171413;28;20053;-69
2023/12/13 00:17:14;;;;;;;72.22;50.50;;;;;;;6.74;69.56;94402.84;4172294;28;20512;-68
2023/12/13 00:19:16;;;;;;;77.20;50.85;;;;;;;6.81;69.45;94405.69;4176560;28;20106;-69
2023/12/13 00:21:18;;;;;;;82.15;53.40;;;;;;;6.85;69.14;94405.25;4167424;28;20081;-69
2023/12/13 00:23:20;;;;;;;85.60;52.60;;;;;;;6.82;69.02;94409.91;4177969;28;20052;-69
2023/12/13 00:25:22;;;;;;;91.07;50.63;;;;;;;6.80;69.11;94404.88;4166007;28;20103;-68
2023/12/13 00:27:24;;;;;;;67.50;41.35;;;;;;;6.68;68.07;94408.63;4169217;28;20485;-67
2023/12/13 00:29:26;;;;;;;62.08;42.40;;;;;;;6.27;69.59;94414.06;4170496;28;20049;-68
2023/12/13 00:31:28;;;;;;;66.18;44.65;;;;;;;6.04;70.77;94410.94;4174906;28;20175;-69
2023/12/13 00:33:30;;;;;;;67.45;45.15;;;;;;;5.69;71.50;94409.69;4168947;28;20080;-67
2023/12/13 00:35:32;;;;;;;71.50;47.70;;;;;;;5.78;72.38;94407.22;4162094;28;20422;-67
2023/12/13 00:37:33;;;;;;;68.07;47.00;;;;;;;5.83;72.43;94389.44;4173590;28;20083;-66
2023/12/13 00:39:36;;;;;;;65.55;43.45;;;;;;;5.96;72.18;94387.41;4166276;28;20057;-68
2023/12/13 00:41:38;;;;;;;69.50;46.45;;;;;;;6.13;71.35;94391.91;4178216;28;20111;-69
2023/12/13 00:43:40;;;;;;;84.30;54.88;;;;;;;6.22;70.99;94387.66;4166798;28;20083;-66
2023/12/13 00:45:42;;;;;;;72.95;49.28;;;;;;;6.28;70.77;94389.69;4170440;28;20045;-68
2023/12/13 00:47:44;;;;;;;69.60;45.30;;;;;;;6.38;70.51;94389.66;4177180;28;20053;-68
2023/12/13 00:49:46;;;;;;;66.30;43.53;;;;;;;6.47;69.73;94391.41;4169274;28;20080;-67
2023/12/13 00:51:48;;;;;;;72.75;48.17;;;;;;;6.55;69.74;94385.50;4169091;28;20063;-68
2023/12/13 00:53:50;;;;;;;76.28;49.05;;;;;;;6.62;69.14;94383.16;4168391;28;20048;-68
2023/12/13 00:55:53;;;;;;;74.80;49.75;;;;;;;6.65;69.24;94369.88;4174422;28;20049;-68
2023/12/13 00:57:56;;;;;;;71.20;48.85;;;;;;;6.75;69.08;94375.81;4175433;28;20074;-70
2023/12/13 00:59:57;;;;;;;65.35;44.80;;;;;;;6.80;68.57;94368.44;4177595;28;20114;-68
2023/12/13 01:02:00;;;;;;;66.53;43.78;;;;;;;6.82;68.67;94356.09;4177341;28;20041;-67
2023/12/13 01:04:02;;;;;;;65.28;44.15;;;;;;;6.78;69.03;94344.31;4172619;28;20055;-66
2023/12/13 01:06:10;;;;;;;63.05;45.80;;;;;;;6.82;69.15;94347.44;4173870;28;20041;-65
2023/12/13 01:08:13;;;;;;;76.80;51.53;;;;;;;6.81;68.65;94348.41;4167162;28;20404;-67
2023/12/13 01:10:15;;;;;;;80.30;53.70;;;;;;;6.76;68.55;94341.03;4165754;28;20503;-70
2023/12/13 01:12:17;;;;;;;75.28;49.60;;;;;;;6.73;68.74;94342.16;4174385;28;20083;-69
2023/12/13 01:14:19;;;;;;;74.15;51.25;;;;;;;6.79;69.05;94338.13;4176691;28;20169;-67
2023/12/13 01:16:21;;;;;;;80.95;50.17;;;;;;;6.80;68.79;94331.97;4177698;28;20107;-68
2023/12/13 01:18:23;;;;;;;82.22;52.05;;;;;;;6.70;68.50;94323.38;4177130;28;20107;-66
2023/12/13 01:20:25;;;;;;;75.80;50.60;;;;;;;6.65;69.01;94315.19;4175909;28;20433;-67
2023/12/13 01:22:26;;;;;;;82.72;49.53;;;;;;;6.69;68.99;94313.91;4176782;28;20053;-67
2023/12/13 01:24:28;;;;;;;73.38;49.63;;;;;;;6.69;69.05;94311.31;4171057;28;20754;-68
2023/12/13 01:26:30;;;;;;;74.15;51.28;;;;;;;6.75;68.75;94314.19;4170243;28;20053;-68
2023/12/13 01:28:32;;;;;;;82.88;56.70;;;;;;;6.72;68.54;94311.03;4176061;28;20048;-69
2023/12/13 01:30:34;;;;;;;81.10;54.88;;;;;;;6.73;68.79;94315.28;4173404;28;20062;-66
2023/12/13 01:32:36;;;;;;;88.97;57.55;;;;;;;6.78;68.96;94320.06;4170203;28;20045;-68
2023/12/13 01:34:38;;;;;;;88.75;58.97;;;;;;;6.73;69.13;94325.69;4172285;28;20056;-67
2023/12/13 01:36:42;;;;;;;83.25;56.60;;;;;;;6.75;68.56;94326.38;4170003;28;20041;-69
2023/12/13 01:38:44;;;;;;;87.40;58.55;;;;;;;6.68;69.13;94333.94;4169800;28;20377;-68
2023/12/13 01:40:50;;;;;;;88.18;59.10;;;;;;;6.63;69.09;94345.75;4164496;28;20053;-68
2023/12/13 01:43:20;;;;;;;84.55;57.42;;;;;;;6.60;69.05;94341.63;4175480;28;20108;-68
2023/12/13 01:45:22;;;;;;;100.13;65.13;;;;;;;6.53;69.66;94330.97;4169722;28;20052;-69
2023/12/13 01:47:25;;;;;;;88.90;62.75;;;;;;;6.57;69.39;94332.34;4176675;28;20149;-68
2023/12/13 01:49:26;;;;;;;89.45;59.35;;;;;;;6.57;69.52;94318.50;4175564;28;20440;-69
2023/12/13 01:51:29;;;;;;;92.90;59.85;;;;;;;6.64;69.55;94316.16;4162099;28;20364;-69
2023/12/13 01:53:32;;;;;;;89.57;59.10;;;;;;;6.66;69.43;94309.03;4171639;28;20059;-68
2023/12/13 01:55:34;;;;;;;89.13;58.30;;;;;;;6.53;69.40;94309.34;4177381;28;20045;-68
2023/12/13 01:57:38;;;;;;;97.43;61.42;;;;;;;6.50;69.85;94301.84;4175291;28;20053;-66
2023/12/13 01:59:41;;;;;;;90.67;58.50;;;;;;;6.53;69.86;94304.16;4192415;28;20056;-69
2023/12/13 02:01:43;;;;;;;88.75;57.45;;;;;;;6.58;69.53;94299.31;4159804;28;20279;-68
2023/12/13 02:03:46;;;;;;;84.82;58.20;;;;;;;6.55;69.12;94289.22;4161295;28;20456;-68
2023/12/13 02:05:50;;;;;;;91.13;59.85;;;;;;;6.51;69.21;94286.06;4173845;28;20426;-68
2023/12/13 02:07:52;;;;;;;87.20;60.05;;;;;;;6.52;69.65;94289.50;4164449;28;20060;-68
2023/12/13 02:09:54;;;;;;;83.47;57.17;;;;;;;6.50;69.27;94279.25;4165618;28;20056;-66
2023/12/13 02:11:57;;;;;;;91.82;59.88;;;;;;;6.51;69.42;94278.25;4169634;28;20045;-68
2023/12/13 02:13:59;;;;;;;90.13;61.13;;;;;;;6.51;69.44;94265.25;4177912;28;20084;-68
2023/12/13 02:16:01;;;;;;;84.80;57.92;;;;;;;6.54;69.44;94262.38;4179654;28;20045;-67
2023/12/13 02:18:03;;;;;;;87.63;59.25;;;;;;;6.63;69.18;94259.88;4176199;28;20128;-66
2023/12/13 02:20:06;;;;;;;87.72;58.42;;;;;;;6.65;68.74;94250.13;4168900;28;20091;-68
2023/12/13 02:22:08;;;;;;;83.47;57.50;;;;;;;6.67;69.60;94241.22;4169314;28;20073;-67
2023/12/13 02:24:13;;;;;;;83.65;56.80;;;;;;;6.72;69.08;94253.78;4179109;28;20144;-69
2023/12/13 02:26:15;;;;;;;81.28;53.97;;;;;;;6.81;68.85;94265.91;4166437;28;20118;-68
2023/12/13 02:28:17;;;;;;;76.93;52.20;;;;;;;6.81;68.78;94275.50;4178461;28;20458;-70
2023/12/13 02:30:19;;;;;;;68.70;48.65;;;;;;;6.84;68.92;94281.25;4178119;28;20151;-69
2023/12/13 02:32:25;;;;;;;69.75;48.17;;;;;;;6.89;68.61;94273.81;4177666;28;20051;-69
2023/12/13 02:34:27;;;;;;;64.97;45.90;;;;;;;6.88;68.52;94276.56;4177950;28;20383;-69
2023/12/13 02:36:30;;;;;;;68.88;42.58;;;;;;;6.88;68.42;94264.38;4179790;28;20500;-70
2023/12/13 02:38:32;;;;;;;65.13;45.72;;;;;;;6.91;68.51;94250.25;4169387;28;20453;-69
2023/12/13 02:40:34;;;;;;;71.25;46.53;;;;;;;6.92;67.98;94220.63;4174477;28;20092;-69
2023/12/13 02:42:35;;;;;;;71.07;48.22;;;;;;;6.88;68.00;94224.47;4178003;28;20045;-68
2023/12/13 02:44:38;;;;;;;80.72;53.08;;;;;;;6.83;68.37;94211.09;4161204;28;20120;-68
2023/12/13 02:46:40;;;;;;;82.30;54.78;;;;;;;6.77;68.18;94228.13;4178567;28;20153;-68
2023/12/13 02:48:42;;;;;;;78.57;55.55;;;;;;;6.74;68.35;94234.44;4174804;28;20107;-68
2023/12/13 02:50:45;;;;;;;72.75;52.58;;;;;;;6.66;68.50;94236.13;4170945;28;20092;-69
2023/12/13 02:52:47;;;;;;;73.18;52.20;;;;;;;6.69;68.74;94243.63;4173731;28;20420;-68
2023/12/13 02:54:49;;;;;;;105.13;72.28;;;;;;;6.67;68.79;94245.59;4166756;28;20128;-67
2023/12/13 02:56:52;;;;;;;113.72;83.78;;;;;;;6.62;68.93;94247.81;4179851;28;20044;-68
2023/12/13 02:58:53;;;;;;;106.10;80.18;;;;;;;6.48;69.27;94249.94;4170430;28;20057;-67
2023/12/13 03:00:55;;;;;;;97.28;72.45;;;;;;;6.42;69.13;94252.31;4171291;28;20045;-69
2023/12/13 03:02:57;;;;;;;102.00;75.40;;;;;;;6.45;69.74;94249.41;4179248;28;20041;-69
2023/12/13 03:05:00;;;;;;;104.70;76.25;;;;;;;6.42;69.50;94252.31;4172459;28;20050;-68
2023/12/13 03:07:04;;;;;;;86.43;62.67;;;;;;;6.43;69.27;94240.91;4174929;28;20037;-68
2023/12/13 03:09:06;;;;;;;82.85;58.17;;;;;;;6.47;69.53;94235.28;4189225;28;20136;-68
2023/12/13 03:11:10;;;;;;;88.97;58.35;;;;;;;6.46;69.64;94238.03;4177709;28;20128;-68
2023/12/13 03:13:12;;;;;;;;;;;;;;;6.43;69.29;94233.94;4179127;28;20136;-67
2023/12/13 03:15:14;;;;;;;83.38;58.97;;;;;;;6.34;69.35;94227.81;4179151;28;19920;-69
2023/12/13 03:17:16;;;;;;;88.22;57.50;;;;;;;6.27;69.89;94244.16;4163191;28;20042;-69
2023/12/13 03:19:18;;;;;;;83.50;59.30;;;;;;;6.30;69.90;94260.31;4167609;28;20081;-65
2023/12/13 03:21:20;;;;;;;80.55;55.08;;;;;;;6.26;69.63;94256.34;4179229;28;20310;-67
2023/12/13 03:23:22;;;;;;;82.47;56.80;;;;;;;6.03;69.83;94261.09;4178228;28;20079;-67
2023/12/13 03:25:24;;;;;;;81.68;58.38;;;;;;;5.77;70.95;94265.25;4173680;28;20411;-66
2023/12/13 03:27:25;;;;;;;81.30;57.58;;;;;;;5.25;72.24;94261.19;4167897;28;20057;-69
2023/12/13 03:29:28;;;;;;;83.72;57.10;;;;;;;5.00;74.01;94288.50;4175503;28;20056;-68
2023/12/13 03:31:30;;;;;;;84.82;57.65;;;;;;;4.59;75.21;94292.13;4161994;28;20445;-68
2023/12/13 03:33:32;;;;;;;91.05;60.72;;;;;;;4.84;75.71;94272.63;4168864;28;20048;-66
2023/12/13 03:35:34;;;;;;;80.78;59.13;;;;;;;4.95;75.22;94258.72;4165880;28;20132;-68
2023/12/13 03:37:35;;;;;;;86.13;59.20;;;;;;;4.92;74.18;94259.81;4177723;28;20496;-69
2023/12/13 03:39:38;;;;;;;86.03;57.10;;;;;;;5.02;74.60;94265.84;4162471;28;20538;-69
2023/12/13 03:41:40;;;;;;;81.30;57.17;;;;;;;5.23;74.22;94263.13;4164864;28;20080;-68
2023/12/13 03:43:42;;;;;;;83.00;54.97;;;;;;;5.37;73.27;94261.06;4165835;28;20053;-67
2023/12/13 03:45:44;;;;;;;74.78;52.25;;;;;;;5.49;72.56;94262.56;4165744;28;20095;-68
2023/12/13 03:47:46;;;;;;;77.93;52.17;;;;;;;5.64;72.28;94276.75;4173963;28;20056;-67
2023/12/13 03:49:48;;;;;;;71.57;50.15;;;;;;;5.78;71.56;94279.88;4167488;28;20365;-70
2023/12/13 03:51:50;;;;;;;66.65;46.65;;;;;;;5.89;71.52;94277.94;4165964;28;20098;-67
2023/12/13 03:53:52;;;;;;;69.13;46.65;;;;;;;5.89;70.61;94262.34;4168972;28;20049;-67
2023/12/13 03:55:54;;;;;;;68.88;50.00;;;;;;;5.97;70.85;94261.66;4173113;28;20048;-68
2023/12/13 03:57:56;;;;;;;75.95;49.83;;;;;;;6.02;70.55;94256.00;4180863;28;20048;-67
2023/12/13 03:59:58;;;;;;;69.63;48.88;;;;;;;6.04;70.66;94249.69;4171451;28;20124;-70
2023/12/13 04:02:00;;;;;;;73.00;49.13;;;;;;;6.10;70.19;94256.94;4176165;28;20053;-69
2023/12/13 04:04:02;;;;;;;73.70;52.30;;;;;;;5.87;70.75;94246.06;4170808;28;20457;-68
2023/12/13 04:06:04;;;;;;;69.35;50.63;;;;;;;5.85;71.53;94245.38;4174263;28;20069;-67
2023/12/13 04:08:06;;;;;;;72.20;51.25;;;;;;;5.95;71.11;94242.75;4174213;28;20051;-68
2023/12/13 04:10:09;;;;;;;73.63;51.80;;;;;;;6.06;70.85;94233.97;4176006;28;20051;-70
2023/12/13 04:12:11;;;;;;;70.05;48.38;;;;;;;6.17;70.85;94238.16;4177549;28;20439;-68
2023/12/13 04:14:13;;;;;;;70.63;50.70;;;;;;;6.24;70.05;94229.66;4165855;28;20439;-67
2023/12/13 04:16:15;;;;;;;75.03;47.53;;;;;;;6.30;70.29;94230.84;4172304;28;20377;-69
2023/12/13 04:18:17;;;;;;;72.63;52.45;;;;;;;6.34;69.60;94232.19;4164039;28;20053;-69
2023/12/13 04:20:19;;;;;;;74.95;50.72;;;;;;;6.26;69.63;94225.13;4174935;28;20136;-70
2023/12/13 04:22:21;;;;;;;77.82;51.70;;;;;;;6.25;69.97;94222.66;4164797;28;20049;-70
2023/12/13 04:24:23;;;;;;;75.38;49.70;;;;;;;6.29;70.11;94218.81;4161108;28;20057;-70
2023/12/13 04:26:27;;;;;;;78.13;52.40;;;;;;;6.37;69.87;94221.53;4172994;28;20040;-67
2023/12/13 04:28:29;;;;;;;77.90;52.20;;;;;;;6.37;70.15;94205.91;4165250;28;20057;-67
2023/12/13 04:30:31;;;;;;;75.45;51.63;;;;;;;6.38;69.70;94202.34;4178090;28;20503;-65
2023/12/13 04:32:33;;;;;;;71.60;50.50;;;;;;;6.47;69.46;94201.44;4177137;28;20567;-69
2023/12/13 04:34:35;;;;;;;77.65;52.97;;;;;;;6.49;69.32;94207.31;4166013;28;20497;-69
2023/12/13 04:36:37;;;;;;;74.20;52.00;;;;;;;6.48;69.56;94203.09;4163131;28;20076;-68
2023/12/13 04:38:39;;;;;;;85.50;51.92;;;;;;;6.48;69.33;94192.69;4174864;28;20053;-67
2023/12/13 04:40:41;;;;;;;73.38;52.47;;;;;;;6.42;69.43;94211.47;4164804;28;20143;-69
2023/12/13 04:42:43;;;;;;;75.07;51.10;;;;;;;6.32;70.08;94195.94;4169067;28;20405;-69
2023/12/13 04:44:45;;;;;;;78.05;50.47;;;;;;;6.31;70.04;94185.69;4161237;28;20445;-67
2023/12/13 04:46:47;;;;;;;76.05;52.45;;;;;;;6.31;70.67;94177.88;4164710;28;20043;-68
2023/12/13 04:48:48;;;;;;;70.60;48.35;;;;;;;6.05;70.46;94186.34;4173093;28;20053;-69
2023/12/13 04:50:50;;;;;;;71.00;46.97;;;;;;;5.74;71.96;94194.38;4171985;28;20449;-68
2023/12/13 04:52:52;;;;;;;69.90;49.58;;;;;;;5.77;72.19;94192.47;4175665;28;20050;-67
2023/12/13 04:54:54;;;;;;;70.07;49.55;;;;;;;5.90;72.54;94187.75;4174872;28;20484;-68
2023/12/13 04:56:57;;;;;;;69.70;46.53;;;;;;;6.02;71.61;94194.41;4177021;28;20040;-69
2023/12/13 04:58:59;;;;;;;61.33;42.90;;;;;;;6.11;71.07;94200.56;4167069;28;20056;-67
2023/12/13 05:01:01;;;;;;;64.57;44.90;;;;;;;6.07;70.57;94192.22;4178241;28;20045;-69
2023/12/13 05:03:03;;;;;;;61.22;45.75;;;;;;;6.15;71.00;94184.53;4168519;28;20106;-70
2023/12/13 05:05:06;;;;;;;63.95;43.80;;;;;;;6.23;70.49;94177.78;4162631;28;20057;-70
2023/12/13 05:07:08;;;;;;;65.43;45.38;;;;;;;6.16;69.88;94172.34;4169757;28;20493;-70
2023/12/13 05:09:10;;;;;;;59.30;43.40;;;;;;;6.12;70.59;94191.78;4166812;28;20559;-71
2023/12/13 05:11:12;;;;;;;65.70;43.92;;;;;;;6.07;70.89;94168.81;4177019;28;20515;-67
2023/12/13 05:13:14;;;;;;;61.15;43.42;;;;;;;6.17;71.13;94162.75;4177067;28;20128;-72
2023/12/13 05:15:16;;;;;;;57.75;41.55;;;;;;;6.22;70.95;94170.94;4178065;28;20049;-68
2023/12/13 05:17:18;;;;;;;58.67;42.00;;;;;;;6.31;70.73;94175.28;4166355;28;21595;-70
2023/12/13 05:19:20;;;;;;;56.45;39.92;;;;;;;6.24;70.06;94154.22;4164702;28;20535;-69
2023/12/13 05:21:22;;;;;;;59.67;41.13;;;;;;;5.43;72.63;94160.00;4171657;28;20099;-69
2023/12/13 05:23:26;;;;;;;65.35;46.92;;;;;;;5.24;73.87;94180.81;4176563;28;20142;-68
2023/12/13 05:25:28;;;;;;;69.60;47.25;;;;;;;5.34;74.00;94189.44;4162809;28;20190;-68
2023/12/13 05:27:30;;;;;;;68.97;47.20;;;;;;;5.00;74.72;94176.06;4165498;28;20050;-69
2023/12/13 05:29:34;;;;;;;65.85;48.05;;;;;;;4.18;76.73;94183.25;4168214;28;20103;-70
2023/12/13 05:31:36;;;;;;;74.93;50.25;;;;;;;4.29;77.40;94184.91;4177532;28;20053;-69
2023/12/13 05:33:38;;;;;;;68.65;50.38;;;;;;;4.58;77.10;94190.16;4178786;28;20167;-70
2023/12/13 05:35:40;;;;;;;75.10;50.58;;;;;;;4.80;76.25;94186.47;4179962;28;20063;-69
2023/12/13 05:37:42;;;;;;;79.68;53.78;;;;;;;4.57;76.25;94177.31;4180134;28;20067;-70
2023/12/13 05:39:44;;;;;;;87.07;56.88;;;;;;;4.69;76.04;94165.84;4178868;28;20091;-69
2023/12/13 05:41:45;;;;;;;85.25;57.63;;;;;;;4.89;75.84;94167.47;4192006;28;20070;-68
2023/12/13 05:43:47;;;;;;;85.50;56.50;;;;;;;5.13;75.28;94184.41;4170110;28;20415;-71
2023/12/13 05:45:49;;;;;;;84.30;59.17;;;;;;;5.22;74.05;94191.34;4173573;28;20128;-69
2023/12/13 05:47:51;;;;;;;84.93;56.05;;;;;;;5.26;74.56;94200.50;4176575;28;20041;-69
2023/12/13 05:49:53;;;;;;;87.22;59.35;;;;;;;5.42;73.75;94206.88;4176488;28;20056;-69
2023/12/13 05:51:55;;;;;;;79.05;55.80;;;;;;;5.53;73.18;94191.16;4171002;28;20642;-70
2023/12/13 05:53:57;;;;;;;86.20;54.33;;;;;;;5.64;72.50;94188.41;4180971;28;20048;-70
2023/12/13 05:55:59;;;;;;;72.03;50.97;;;;;;;5.68;72.67;94188.94;4180123;28;20064;-71
2023/12/13 05:58:01;;;;;;;72.63;50.92;;;;;;;5.75;72.39;94200.41;4177107;28;20044;-69
2023/12/13 06:00:06;;;;;;;72.40;51.15;;;;;;;5.78;72.33;94191.50;4181342;28;20052;-71
2023/12/13 06:02:08;;;;;;;74.88;49.85;;;;;;;5.86;71.97;94163.00;4179267;28;20061;-69
2023/12/13 06:04:10;;;;;;;73.15;49.47;;;;;;;5.98;71.93;94167.09;4180476;28;20061;-69
2023/12/13 06:06:12;;;;;;;67.00;47.30;;;;;;;6.04;71.51;94158.69;4177315;28;20519;-71
2023/12/13 06:08:14;;;;;;;68.25;47.78;;;;;;;6.08;71.12;94154.84;4180316;28;20060;-70
2023/12/13 06:10:16;;;;;;;69.32;47.72;;;;;;;6.12;71.28;94148.38;4166766;28;20365;-71
2023/12/13 06:12:17;;;;;;;66.70;46.45;;;;;;;6.11;70.98;94158.97;4178055;28;20132;-71
2023/12/13 06:14:19;;;;;;;66.43;47.33;;;;;;;6.02;71.31;94154.59;4175991;28;20088;-70
2023/12/13 06:16:21;;;;;;;68.85;47.03;;;;;;;6.05;71.80;94165.56;4165305;28;20053;-70
2023/12/13 06:18:23;;;;;;;58.75;44.55;;;;;;;6.12;72.07;94158.78;4175989;28;20064;-69
2023/12/13 06:20:26;;;;;;;60.30;44.40;;;;;;;6.22;71.45;94173.56;4178247;28;20067;-69
2023/12/13 06:22:28;;;;;;;60.80;44.53;;;;;;;6.32;71.29;94169.94;4170989;28;20044;-70
2023/12/13 06:24:30;;;;;;;62.05;42.85;;;;;;;6.40;70.33;94156.16;4179874;28;20057;-71
2023/12/13 06:26:32;;;;;;;54.50;42.15;;;;;;;6.50;70.39;94159.53;4180420;28;20084;-70
2023/12/13 06:28:34;;;;;;;57.33;41.78;;;;;;;6.50;70.38;94138.72;4175280;28;20056;-69
2023/12/13 06:30:36;;;;;;;57.60;42.13;;;;;;;6.61;70.23;94136.88;4170773;28;20064;-71
2023/12/13 06:32:38;;;;;;;61.45;42.60;;;;;;;6.66;69.95;94129.41;4178839;28;20068;-71
2023/12/13 06:34:40;;;;;;;66.43;41.75;;;;;;;6.78;70.27;94145.66;4175905;28;20415;-70
2023/12/13 06:36:42;;;;;;;69.28;42.42;;;;;;;6.81;69.69;94143.53;4175397;28;20508;-69
2023/12/13 06:38:46;;;;;;;57.95;40.70;;;;;;;6.92;69.35;94153.72;4179554;28;20118;-71
2023/12/13 06:40:48;;;;;;;57.22;40.63;;;;;;;6.91;69.08;94148.69;4177612;28;20067;-71
2023/12/13 06:42:49;;;;;;;54.75;39.22;;;;;;;7.00;69.35;94150.38;4178368;28;20132;-71
2023/12/13 06:44:52;;;;;;;50.78;39.17;;;;;;;7.06;68.82;94135.94;4175682;28;20049;-72
2023/12/13 06:46:54;;;;;;;58.45;38.05;;;;;;;7.13;68.53;94139.56;4179055;28;20043;-70
2023/12/13 06:48:56;;;;;;;53.97;37.28;;;;;;;7.12;68.23;94127.50;4180134;28;20132;-71
2023/12/13 06:50:58;;;;;;;53.97;37.60;;;;;;;7.13;68.62;94116.94;4178524;28;20059;-71
2023/12/13 06:53:00;;;;;;;53.72;36.97;;;;;;;7.17;68.47;94120.88;4180546;28;20377;-71
2023/12/13 06:55:03;;;;;;;46.00;34.40;;;;;;;7.25;68.24;94114.06;4176581;28;20053;-71
2023/12/13 06:57:06;;;;;;;45.30;32.57;;;;;;;7.26;68.12;94123.53;4177000;28;20053;-71
2023/12/13 06:59:08;;;;;;;47.80;33.95;;;;;;;7.27;67.63;94125.16;4176585;28;20278;-70
2023/12/13 07:01:10;;;;;;;50.08;34.95;;;;;;;7.29;67.48;94128.44;4169052;28;20143;-71
2023/12/13 07:03:12;;;;;;;49.15;35.33;;;;;;;7.36;68.14;94130.28;4176066;28;20132;-69
2023/12/13 07:05:14;;;;;;;52.80;35.28;;;;;;;7.41;67.41;94137.63;4178886;28;20255;-71
2023/12/13 07:07:16;;;;;;;50.85;35.17;;;;;;;7.46;67.58;94132.78;4173252;28;20478;-72
2023/12/13 07:09:18;;;;;;;53.13;36.55;;;;;;;7.45;67.59;94138.97;4176273;28;20045;-70
2023/12/13 07:11:20;;;;;;;49.65;34.13;;;;;;;7.44;67.31;94126.09;4178788;28;20048;-69
2023/12/13 07:13:22;;;;;;;51.15;35.35;;;;;;;7.49;67.49;94136.88;4179125;28;20053;-71
2023/12/13 07:15:24;;;;;;;44.42;32.75;;;;;;;7.52;67.15;94131.34;4166708;28;20372;-69
2023/12/13 07:17:25;;;;;;;38.45;27.75;;;;;;;7.47;67.05;94133.63;4163814;28;20115;-70
2023/12/13 07:19:27;;;;;;;45.92;32.42;;;;;;;7.44;66.80;94133.91;4163394;28;20058;-70
2023/12/13 07:21:29;;;;;;;44.75;31.73;;;;;;;7.48;67.06;94132.63;4163480;28;20046;-69
2023/12/13 07:23:31;;;;;;;42.35;30.48;;;;;;;7.53;67.44;94114.75;4164267;28;20053;-69
2023/12/13 07:25:33;;;;;;;36.03;24.48;;;;;;;7.59;66.34;94112.34;4178051;28;20045;-71
2023/12/13 07:27:35;;;;;;;32.97;26.75;;;;;;;7.69;66.64;94117.44;4172659;28;20046;-71
2023/12/13 07:29:41;;;;;;;39.20;27.48;;;;;;;7.69;66.61;94125.25;4163936;28;20050;-70
2023/12/13 07:31:43;;;;;;;33.75;21.95;;;;;;;7.73;66.23;94126.56;4176756;28;20049;-69
2023/12/13 07:33:45;;;;;;;35.58;24.15;;;;;;;7.65;66.06;94128.31;4189115;28;20048;-71
2023/12/13 07:35:47;;;;;;;32.85;23.15;;;;;;;7.61;65.69;94117.38;4176191;28;20055;-71
2023/12/13 07:37:49;;;;;;;29.42;21.02;;;;;;;7.55;66.25;94115.41;4176891;28;20377;-69
2023/12/13 07:39:51;;;;;;;27.83;22.35;;;;;;;7.64;66.53;94119.69;4176246;28;20183;-70
2023/12/13 07:41:53;;;;;;;30.70;23.30;;;;;;;7.67;66.52;94123.78;4178110;28;20049;-71
2023/12/13 07:43:56;;;;;;;29.70;23.47;;;;;;;7.75;65.54;94118.63;4176931;28;20048;-71
2023/12/13 07:45:58;;;;;;;30.85;22.88;;;;;;;7.56;65.65;94101.41;4175652;28;20140;-73
2023/12/13 07:48:00;;;;;;;36.42;24.50;;;;;;;7.33;66.59;94103.72;4173673;28;20051;-71
2023/12/13 07:50:22;;;;;;;33.85;24.65;;;;;;;7.34;67.29;94111.38;4178670;28;20056;-71
2023/12/13 07:52:24;;;;;;;40.40;25.92;;;;;;;7.46;67.53;94109.31;4176549;28;20064;-69
2023/12/13 07:54:26;;;;;;;39.92;25.20;;;;;;;7.57;66.40;94123.88;4173916;28;20141;-73
2023/12/13 07:56:31;;;;;;;38.35;24.65;;;;;;;7.52;66.22;94124.34;4164993;28;20495;-70
2023/12/13 07:58:34;;;;;;;39.92;25.45;;;;;;;7.46;66.66;94122.34;4171616;28;20065;-70
2023/12/13 08:00:36;;;;;;;39.33;29.33;;;;;;;7.10;67.71;94134.69;4168656;28;20073;-70
2023/12/13 08:02:38;;;;;;;44.35;29.80;;;;;;;6.75;68.99;94133.72;4167007;28;20072;-71
2023/12/13 08:04:48;;;;;;;38.95;30.20;;;;;;;6.68;69.30;94128.31;4168233;28;20076;-71
2023/12/13 08:06:51;;;;;;;39.92;29.13;;;;;;;6.63;69.50;94135.75;4173550;28;20055;-71
2023/12/13 08:08:52;;;;;;;41.15;30.67;;;;;;;6.69;69.50;94136.91;4170973;28;20165;-72
2023/12/13 08:10:54;;;;;;;46.80;33.28;;;;;;;6.73;69.63;94127.84;4170866;28;20539;-70
2023/12/13 08:12:56;;;;;;;46.17;33.47;;;;;;;6.94;69.53;94130.94;4168111;28;20164;-70
2023/12/13 08:14:58;;;;;;;44.88;33.88;;;;;;;7.09;68.71;94128.63;4172344;28;20127;-69
2023/12/13 08:17:06;;;;;;;56.85;34.15;;;;;;;7.20;68.71;94100.69;4172567;28;20439;-70
2023/12/13 08:19:08;;;;;;;45.17;33.63;;;;;;;7.41;68.02;94102.97;4160925;28;20075;-69
2023/12/13 08:21:11;;;;;;;47.55;33.83;;;;;;;7.54;67.35;94104.16;4166251;28;20151;-71
2023/12/13 08:23:13;;;;;;;47.85;33.80;;;;;;;7.41;66.78;94084.72;4168149;28;20061;-71
2023/12/13 08:25:15;;;;;;;48.10;32.00;;;;;;;7.48;67.49;94098.75;4161191;28;20053;-71
2023/12/13 08:27:17;;;;;;;45.90;32.13;;;;;;;7.54;67.30;94101.56;4167490;28;20558;-69
2023/12/13 08:29:19;;;;;;;48.38;34.25;;;;;;;7.52;67.53;94102.69;4169777;28;20120;-70
2023/12/13 08:31:20;;;;;;;51.75;33.75;;;;;;;7.53;67.10;94102.53;4165598;28;20057;-71
2023/12/13 08:33:28;;;;;;;49.33;33.67;;;;;;;7.67;67.46;94101.13;4163193;28;21251;-70
2023/12/13 08:35:30;;;;;;;47.72;34.00;;;;;;;7.65;66.59;94104.88;4175705;28;20053;-72
2023/12/13 08:37:32;;;;;;;56.85;34.28;;;;;;;7.71;66.77;94097.25;4163877;28;20041;-71
2023/12/13 08:39:34;;;;;;;54.65;35.53;;;;;;;7.52;66.81;94102.69;4160928;28;20500;-72
2023/12/13 08:41:36;;;;;;;55.25;35.15;;;;;;;7.42;67.17;94115.84;4174293;28;20072;-70
2023/12/13 08:43:38;;;;;;;54.20;35.70;;;;;;;7.38;67.18;94122.31;4166034;28;20155;-69
2023/12/13 08:45:41;;;;;;;63.10;38.25;;;;;;;7.38;67.52;94122.31;4173741;28;20045;-70
2023/12/13 08:47:43;;;;;;;61.67;39.35;;;;;;;7.44;67.34;94132.09;4163399;28;20046;-69
2023/12/13 08:49:46;;;;;;;66.10;40.22;;;;;;;7.41;67.20;94119.41;4163907;28;20467;-71
2023/12/13 08:51:48;;;;;;;70.57;43.90;;;;;;;7.30;67.79;94117.88;4175993;28;20083;-71
2023/12/13 08:53:54;;;;;;;75.07;47.33;;;;;;;7.13;68.30;94123.94;4177252;28;20053;-71
2023/12/13 08:55:56;;;;;;;59.70;41.58;;;;;;;7.20;68.51;94119.75;4174482;28;20099;-70
2023/12/13 08:57:58;;;;;;;60.28;40.15;;;;;;;7.29;68.49;94128.44;4176738;28;20574;-72
2023/12/13 09:00:00;;;;;;;70.20;38.88;;;;;;;7.34;68.14;94127.03;4174139;28;20071;-72
2023/12/13 09:02:11;;;;;;;67.55;40.47;;;;;;;7.51;67.93;94132.34;4176781;28;20075;-71
2023/12/13 09:04:14;;;;;;;59.45;39.50;;;;;;;7.65;67.67;94134.34;4168478;28;20363;-70
2023/12/13 09:06:16;;;;;;;59.92;38.15;;;;;;;7.77;66.06;94111.44;4175300;28;20048;-70
2023/12/13 09:08:18;;;;;;;55.80;36.15;;;;;;;7.90;66.23;94096.19;4177870;28;20516;-71
2023/12/13 09:10:21;;;;;;;60.60;36.67;;;;;;;8.09;66.22;94091.69;4164006;28;20068;-71
2023/12/13 09:12:26;;;;;;;53.38;38.15;;;;;;;8.11;65.11;94090.56;4176915;28;20055;-70
2023/12/13 09:14:28;;;;;;;57.88;38.15;;;;;;;8.19;64.97;94094.94;4178634;28;20592;-71
2023/12/13 09:16:30;;;;;;;53.13;38.42;;;;;;;8.15;64.74;94072.75;4177762;28;20522;-70
2023/12/13 09:18:31;;;;;;;48.50;34.70;;;;;;;7.88;65.92;94077.25;4176002;28;20045;-71
2023/12/13 09:20:33;;;;;;;51.53;35.97;;;;;;;7.84;65.70;94072.53;4175649;28;20053;-71
2023/12/13 09:22:36;;;;;;;59.25;35.53;;;;;;;7.80;66.00;94054.56;4172944;28;20385;-71
2023/12/13 09:24:38;;;;;;;49.33;34.05;;;;;;;8.07;66.40;94072.78;4162299;28;20073;-70
2023/12/13 09:26:39;;;;;;;58.13;32.78;;;;;;;8.27;64.30;94036.75;4175537;28;20060;-71
2023/12/13 09:28:41;;;;;;;56.95;35.65;;;;;;;8.21;65.11;94056.47;4163449;28;20048;-69